Time;durP1;ratioP1;P1;durP2;ratioP2;P2;SDS_P1;SDS_P2;PMS_P1;PMS_P2;Temp;Humidity;BMP_temperature;BMP_pressure;BME280_temperature;BME280_humidity;BME280_pressure;Samples;Min_cycle;Max_cycle;Signal;HPM_P1;HPM_P2
2021/07/23 00:01:01;;;;;;;6.37;3.55;;;21.30;60.00;;;;;;2265780;55;20956;-69
2021/07/23 00:03:27;;;;;;;7.78;3.80;;;21.30;60.20;;;;;;2285576;55;20932;-69
2021/07/23 00:05:53;;;;;;;6.55;4.15;;;21.30;60.30;;;;;;2272341;55;21032;-67
2021/07/23 00:08:20;;;;;;;5.37;3.53;;;21.20;60.20;;;;;;2267187;55;21042;-69
2021/07/23 00:10:49;;;;;;;7.22;3.70;;;21.20;60.10;;;;;;2269630;55;21040;-67
2021/07/23 00:13:15;;;;;;;7.53;4.10;;;21.20;60.20;;;;;;2408437;55;21061;-67
2021/07/23 00:15:41;;;;;;;6.45;3.83;;;21.10;60.20;;;;;;2263074;55;20990;-67
2021/07/23 00:18:08;;;;;;;5.43;3.53;;;21.10;60.30;;;;;;2268658;55;21077;-67
2021/07/23 00:20:35;;;;;;;6.00;4.07;;;21.10;60.40;;;;;;2482775;55;20961;-67
2021/07/23 00:23:02;;;;;;;8.25;4.07;;;21.10;60.50;;;;;;2255971;55;21046;-67
2021/07/23 00:25:29;;;;;;;6.80;4.20;;;21.00;60.50;;;;;;2490738;55;21040;-67
2021/07/23 00:27:55;;;;;;;7.57;4.28;;;20.90;60.60;;;;;;2400442;55;20977;-67
2021/07/23 00:30:22;;;;;;;7.05;4.65;;;20.90;60.70;;;;;;2283510;55;21789;-68
2021/07/23 00:32:48;;;;;;;6.85;4.10;;;21.00;60.90;;;;;;2265639;55;20928;-67
2021/07/23 00:35:15;;;;;;;5.70;3.80;;;20.90;60.90;;;;;;2267353;55;21343;-67
2021/07/23 00:37:41;;;;;;;6.55;4.10;;;20.80;60.90;;;;;;2269216;55;21016;-67
2021/07/23 00:40:08;;;;;;;5.50;3.28;;;20.80;60.90;;;;;;2267926;55;20956;-66
2021/07/23 00:42:41;;;;;;;6.18;3.92;;;20.80;61.00;;;;;;2268677;55;21068;-67
2021/07/23 00:45:08;;;;;;;6.12;3.40;;;20.80;61.20;;;;;;2269248;55;21071;-67
2021/07/23 00:47:35;;;;;;;7.05;3.72;;;20.70;61.10;;;;;;2295013;55;21881;-67
2021/07/23 00:50:02;;;;;;;5.50;3.65;;;20.70;61.20;;;;;;2264252;55;21022;-67
2021/07/23 00:52:28;;;;;;;7.75;4.43;;;20.70;61.20;;;;;;2272244;55;20963;-67
2021/07/23 00:54:55;;;;;;;6.22;4.25;;;20.70;61.20;;;;;;2271799;55;20984;-68
2021/07/23 00:57:22;;;;;;;6.30;3.87;;;20.60;61.20;;;;;;2264331;55;20983;-67
2021/07/23 00:59:48;;;;;;;5.85;3.70;;;20.60;61.20;;;;;;2490048;55;20929;-67
2021/07/23 01:02:14;;;;;;;6.22;3.80;;;20.60;61.30;;;;;;2272779;55;21044;-67
2021/07/23 01:04:41;;;;;;;6.65;4.30;;;20.50;61.30;;;;;;2268234;55;25156;-67
2021/07/23 01:07:07;;;;;;;6.93;4.37;;;20.50;61.40;;;;;;2270691;55;21033;-69
2021/07/23 01:09:34;;;;;;;6.25;3.85;;;20.50;61.50;;;;;;2269948;55;20980;-67
2021/07/23 01:12:00;;;;;;;6.40;4.05;;;20.50;61.60;;;;;;2269073;55;21011;-70
2021/07/23 01:14:26;;;;;;;5.85;3.47;;;20.50;61.60;;;;;;2271029;55;21366;-67
2021/07/23 01:16:53;;;;;;;6.82;4.30;;;20.40;61.60;;;;;;2274887;55;20972;-67
2021/07/23 01:19:19;;;;;;;5.85;3.83;;;20.40;61.70;;;;;;2464928;54;20956;-67
2021/07/23 01:21:48;;;;;;;6.22;4.18;;;20.40;61.70;;;;;;2491005;54;21027;-66
2021/07/23 01:24:14;;;;;;;6.43;3.83;;;20.40;61.80;;;;;;2264787;55;20951;-68
2021/07/23 01:26:41;;;;;;;4.97;3.37;;;20.40;61.80;;;;;;2273356;55;20927;-69
2021/07/23 01:29:07;;;;;;;6.37;4.03;;;20.40;61.80;;;;;;2257488;55;20959;-67
2021/07/23 01:31:35;;;;;;;5.90;3.83;;;20.30;61.70;;;;;;2272962;55;20992;-67
2021/07/23 01:34:02;;;;;;;4.62;3.08;;;20.30;61.80;;;;;;2274964;55;21059;-67
2021/07/23 01:36:28;;;;;;;5.78;3.55;;;20.30;61.80;;;;;;2268403;55;20940;-69
2021/07/23 01:38:54;;;;;;;5.55;3.55;;;20.30;61.70;;;;;;2273321;55;21389;-67
2021/07/23 01:41:21;;;;;;;8.50;3.25;;;20.20;61.70;;;;;;2256995;55;21353;-67
2021/07/23 01:43:50;;;;;;;6.35;4.30;;;20.20;61.70;;;;;;2274166;55;21055;-66
2021/07/23 01:46:17;;;;;;;6.00;4.03;;;20.10;61.70;;;;;;2259831;55;20944;-66
2021/07/23 01:48:44;;;;;;;5.93;3.80;;;20.10;61.80;;;;;;2489346;54;21031;-69
2021/07/23 01:51:10;;;;;;;6.90;4.03;;;20.10;61.90;;;;;;2259579;55;21500;-68
2021/07/23 01:53:37;;;;;;;5.57;3.60;;;20.10;62.00;;;;;;2273252;55;21005;-67
2021/07/23 01:56:04;;;;;;;6.07;4.03;;;20.10;62.10;;;;;;2488857;54;21097;-68
2021/07/23 01:58:31;;;;;;;7.28;4.10;;;20.00;62.00;;;;;;2274044;55;21032;-67
2021/07/23 02:00:58;;;;;;;6.37;3.55;;;20.00;62.10;;;;;;2261475;55;20994;-67
2021/07/23 02:03:25;;;;;;;6.28;3.92;;;20.00;62.20;;;;;;2267527;55;20982;-68
2021/07/23 02:05:51;;;;;;;6.40;3.53;;;20.00;62.30;;;;;;2265316;55;21797;-69
2021/07/23 02:08:17;;;;;;;6.68;4.00;;;20.00;62.30;;;;;;2491790;55;20998;-67
2021/07/23 02:10:44;;;;;;;7.30;3.42;;;20.00;62.30;;;;;;2383730;55;20984;-67
2021/07/23 02:13:10;;;;;;;6.05;3.60;;;20.00;62.40;;;;;;2266914;55;21007;-67
2021/07/23 02:15:36;;;;;;;6.05;3.70;;;19.90;62.30;;;;;;2272488;55;21008;-66
2021/07/23 02:18:03;;;;;;;6.15;3.72;;;19.90;62.30;;;;;;2483120;55;20956;-66
2021/07/23 02:20:31;;;;;;;6.65;3.55;;;19.90;62.20;;;;;;2490888;54;20952;-68
2021/07/23 02:22:57;;;;;;;5.93;3.78;;;19.90;62.30;;;;;;2265828;55;20955;-68
2021/07/23 02:25:24;;;;;;;7.28;3.85;;;19.80;62.20;;;;;;2270429;55;21031;-67
2021/07/23 02:27:50;;;;;;;6.20;4.20;;;19.80;62.20;;;;;;2260739;55;20940;-68
2021/07/23 02:30:16;;;;;;;6.82;4.43;;;19.80;62.40;;;;;;2268570;55;21719;-69
2021/07/23 02:32:43;;;;;;;6.53;3.87;;;19.80;62.50;;;;;;2268709;55;21008;-67
2021/07/23 02:35:09;;;;;;;6.12;3.87;;;19.80;62.50;;;;;;2271408;55;21005;-67
2021/07/23 02:37:37;;;;;;;8.23;3.72;;;19.80;62.60;;;;;;2317029;55;21035;-67
2021/07/23 02:40:03;;;;;;;8.13;4.03;;;19.70;62.50;;;;;;2270624;55;21011;-67
2021/07/23 02:42:32;;;;;;;6.40;3.90;;;19.70;62.60;;;;;;2261442;55;21023;-67
2021/07/23 02:44:58;;;;;;;6.53;4.30;;;19.70;62.70;;;;;;2274369;55;20992;-68
2021/07/23 02:47:25;;;;;;;6.15;3.83;;;19.70;62.80;;;;;;2259273;55;21004;-69
2021/07/23 02:49:51;;;;;;;6.43;4.28;;;19.60;62.70;;;;;;2267091;55;20928;-66
2021/07/23 02:52:17;;;;;;;7.53;4.90;;;19.60;62.80;;;;;;2267591;55;21676;-67
2021/07/23 02:54:43;;;;;;;6.43;3.85;;;19.60;62.90;;;;;;2265134;55;21426;-67
2021/07/23 02:57:10;;;;;;;5.62;3.53;;;19.60;62.90;;;;;;2268648;55;21490;-66
2021/07/23 02:59:36;;;;;;;7.68;4.18;;;19.50;62.90;;;;;;2272453;55;21404;-67
2021/07/23 03:02:03;;;;;;;5.65;3.75;;;19.60;62.90;;;;;;2268083;55;21394;-67
2021/07/23 03:04:30;;;;;;;7.25;4.20;;;19.50;62.90;;;;;;2276443;55;22408;-69
2021/07/23 03:06:57;;;;;;;6.55;4.25;;;19.50;62.90;;;;;;2269842;55;21557;-69
2021/07/23 03:09:23;;;;;;;7.05;3.92;;;19.50;63.10;;;;;;2266213;55;21060;-68
2021/07/23 03:11:53;;;;;;;6.80;4.32;;;19.50;63.20;;;;;;2267716;55;20996;-70
2021/07/23 03:14:19;;;;;;;6.28;4.05;;;19.50;63.20;;;;;;2489442;54;20980;-67
2021/07/23 03:16:46;;;;;;;7.70;4.35;;;19.50;63.20;;;;;;2266668;55;21036;-67
2021/07/23 03:19:15;;;;;;;6.57;3.95;;;19.40;63.10;;;;;;2490203;55;21080;-67
2021/07/23 03:21:42;;;;;;;7.22;4.53;;;19.40;63.10;;;;;;2305516;55;3025329;-67
2021/07/23 03:24:09;;;;;;;5.82;3.83;;;19.40;63.20;;;;;;2269877;55;21049;-68
2021/07/23 03:26:35;;;;;;;6.32;3.83;;;19.40;63.10;;;;;;2255542;56;21610;-70
2021/07/23 03:29:03;;;;;;;6.68;3.58;;;19.40;63.10;;;;;;2268248;55;20976;-67
2021/07/23 03:31:30;;;;;;;5.97;3.90;;;19.40;63.10;;;;;;2490527;55;20992;-67
2021/07/23 03:33:59;;;;;;;6.30;3.95;;;19.40;63.20;;;;;;2252710;55;20984;-68
2021/07/23 03:36:30;;;;;;;6.85;4.25;;;19.30;63.20;;;;;;2269551;55;21355;-69
2021/07/23 03:38:56;;;;;;;6.32;4.20;;;19.30;63.10;;;;;;2258220;55;21766;-69
2021/07/23 03:41:22;;;;;;;5.95;3.40;;;19.30;63.10;;;;;;2488225;55;20986;-67
2021/07/23 03:43:48;;;;;;;6.05;3.78;;;19.20;63.00;;;;;;2273473;55;20968;-68
2021/07/23 03:46:15;;;;;;;5.87;3.30;;;19.20;63.10;;;;;;2273837;55;20991;-70
2021/07/23 03:48:41;;;;;;;6.82;4.37;;;19.20;63.10;;;;;;2483936;55;20998;-67
2021/07/23 03:51:08;;;;;;;6.45;4.07;;;19.20;63.10;;;;;;2385122;55;20984;-67
2021/07/23 03:53:34;;;;;;;7.37;4.87;;;19.20;63.20;;;;;;2268144;55;22098;-66
2021/07/23 03:56:05;;;;;;;5.68;3.83;;;19.20;63.30;;;;;;2458152;55;20937;-68
2021/07/23 03:58:33;;;;;;;6.55;4.03;;;19.10;63.30;;;;;;2271268;55;21463;-67
2021/07/23 04:01:04;;;;;;;5.47;4.03;;;19.10;63.30;;;;;;2268271;55;21101;-69
2021/07/23 04:03:30;;;;;;;6.65;4.32;;;19.10;63.40;;;;;;2272504;55;21013;-67
2021/07/23 04:05:57;;;;;;;7.78;3.97;;;19.10;63.40;;;;;;2460602;55;21107;-70
2021/07/23 04:08:23;;;;;;;6.68;4.35;;;19.10;63.50;;;;;;2267262;55;20976;-68
2021/07/23 04:10:49;;;;;;;7.00;3.78;;;19.10;63.50;;;;;;2268162;55;20992;-67
2021/07/23 04:13:19;;;;;;;5.53;3.53;;;19.00;63.40;;;;;;2274084;55;20961;-67
2021/07/23 04:15:47;;;;;;;5.87;3.72;;;19.00;63.40;;;;;;2387075;55;20957;-69
2021/07/23 04:18:15;;;;;;;6.07;3.67;;;19.00;63.40;;;;;;2454032;55;21511;-67
2021/07/23 04:20:43;;;;;;;6.25;3.85;;;19.00;63.50;;;;;;2268858;55;21019;-68
2021/07/23 04:23:09;;;;;;;6.07;3.80;;;19.00;63.50;;;;;;2261545;55;21585;-69
2021/07/23 04:25:38;;;;;;;8.40;4.15;;;19.00;63.50;;;;;;2264517;55;20988;-68
2021/07/23 04:28:09;;;;;;;5.68;3.80;;;19.00;63.60;;;;;;2486076;54;21040;-69
2021/07/23 04:30:35;;;;;;;7.18;4.45;;;19.00;63.70;;;;;;2321366;55;21084;-67
2021/07/23 04:33:01;;;;;;;7.50;4.22;;;19.00;63.80;;;;;;2403370;54;20936;-66
2021/07/23 04:35:28;;;;;;;7.82;4.60;;;19.00;63.90;;;;;;2268247;55;20968;-67
2021/07/23 04:37:55;;;;;;;6.87;4.35;;;18.90;63.90;;;;;;2266730;55;20973;-69
2021/07/23 04:40:24;;;;;;;7.85;4.95;;;19.00;64.10;;;;;;2488260;54;20961;-68
2021/07/23 04:42:52;;;;;;;8.27;4.85;;;18.90;64.20;;;;;;2255182;55;21103;-67
2021/07/23 04:45:21;;;;;;;8.18;5.07;;;19.00;64.30;;;;;;2489399;55;20984;-68
2021/07/23 04:47:48;;;;;;;9.40;5.35;;;19.00;64.30;;;;;;2263287;55;20976;-69
2021/07/23 04:50:14;;;;;;;8.25;5.00;;;19.00;64.70;;;;;;2273291;55;20937;-67
2021/07/23 04:52:40;;;;;;;8.02;4.78;;;19.00;64.50;;;;;;2252814;55;21088;-69
2021/07/23 04:55:09;;;;;;;7.50;4.43;;;19.00;64.60;;;;;;2267044;55;20924;-67
2021/07/23 04:57:44;;;;;;;6.95;4.37;;;19.00;64.70;;;;;;2244455;55;20972;-69
2021/07/23 05:00:11;;;;;;;10.77;4.80;;;19.10;64.90;;;;;;2464879;55;20987;-69
2021/07/23 05:02:41;;;;;;;7.28;5.00;;;19.10;64.90;;;;;;2269939;55;20991;-67
2021/07/23 05:05:11;;;;;;;8.85;4.53;;;19.10;64.90;;;;;;2263075;55;21723;-70
2021/07/23 05:07:41;;;;;;;8.38;4.28;;;19.20;65.10;;;;;;2266186;55;20940;-67
2021/07/23 05:10:08;;;;;;;5.72;3.58;;;19.10;64.90;;;;;;2272034;55;20972;-69
2021/07/23 05:12:36;;;;;;;6.45;4.07;;;19.20;65.10;;;;;;2258026;55;21021;-69
2021/07/23 05:15:03;;;;;;;7.55;3.85;;;19.20;65.10;;;;;;2265962;55;20995;-70
2021/07/23 05:17:31;;;;;;;6.65;4.45;;;19.20;65.10;;;;;;2490041;54;21793;-67
2021/07/23 05:20:03;;;;;;;6.35;4.03;;;19.30;65.20;;;;;;2265724;55;21016;-67
2021/07/23 05:22:31;;;;;;;6.37;3.75;;;19.30;65.30;;;;;;2273786;55;21008;-67
2021/07/23 05:24:59;;;;;;;6.97;3.97;;;19.40;65.40;;;;;;2488937;55;21149;-68
2021/07/23 05:27:26;;;;;;;7.90;4.93;;;19.40;65.40;;;;;;2252953;55;20959;-67
2021/07/23 05:29:54;;;;;;;8.43;4.45;;;19.50;65.50;;;;;;2431337;55;20956;-67
2021/07/23 05:32:20;;;;;;;6.93;4.40;;;19.50;65.50;;;;;;2489433;55;20952;-68
2021/07/23 05:34:47;;;;;;;7.12;4.80;;;19.50;65.60;;;;;;2264656;55;20946;-67
2021/07/23 05:37:14;;;;;;;7.87;5.03;;;19.60;65.70;;;;;;2264575;55;20964;-69
2021/07/23 05:39:44;;;;;;;8.13;4.60;;;19.60;65.70;;;;;;2267361;55;21076;-67
2021/07/23 05:42:10;;;;;;;8.75;5.22;;;19.70;65.80;;;;;;2260938;55;21603;-68
2021/07/23 05:44:37;;;;;;;9.57;5.60;;;19.70;65.90;;;;;;2266425;55;20955;-69
2021/07/23 05:47:03;;;;;;;7.87;5.15;;;19.80;66.00;;;;;;2265038;55;20964;-67
2021/07/23 05:49:30;;;;;;;7.32;4.60;;;19.90;66.10;;;;;;2262267;55;21023;-67
2021/07/23 05:51:56;;;;;;;7.87;4.60;;;19.90;66.10;;;;;;2262021;55;21024;-67
2021/07/23 05:54:24;;;;;;;6.55;4.07;;;20.00;66.20;;;;;;2268267;55;21034;-67
2021/07/23 05:56:50;;;;;;;6.87;4.25;;;20.00;66.20;;;;;;2264754;55;20993;-69
2021/07/23 05:59:17;;;;;;;7.45;4.85;;;20.10;66.30;;;;;;2263098;55;20952;-67
2021/07/23 06:01:43;;;;;;;8.35;5.22;;;20.20;66.30;;;;;;2247231;55;21055;-69
2021/07/23 06:04:09;;;;;;;9.18;5.65;;;20.20;66.30;;;;;;2490519;54;20952;-68
2021/07/23 06:06:36;;;;;;;8.63;5.32;;;20.30;66.30;;;;;;2268185;55;20949;-67
2021/07/23 06:09:04;;;;;;;7.32;4.50;;;20.40;66.40;;;;;;2264061;55;20960;-68
2021/07/23 06:11:30;;;;;;;8.10;5.15;;;20.40;66.40;;;;;;2267752;55;21437;-67
2021/07/23 06:13:56;;;;;;;9.23;4.85;;;20.50;66.50;;;;;;2269990;55;20944;-69
2021/07/23 06:16:23;;;;;;;7.72;4.90;;;20.60;66.60;;;;;;2268898;55;21061;-67
2021/07/23 06:18:49;;;;;;;6.43;4.45;;;20.60;66.60;;;;;;2269406;55;21021;-67
2021/07/23 06:21:16;;;;;;;5.53;3.55;;;20.70;66.60;;;;;;2491361;54;20984;-68
2021/07/23 06:23:42;;;;;;;7.03;4.95;;;20.80;66.70;;;;;;2266890;55;20976;-67
2021/07/23 06:26:09;;;;;;;8.13;4.62;;;20.80;66.60;;;;;;2267594;55;20969;-70
2021/07/23 06:28:35;;;;;;;8.65;5.30;;;20.90;66.70;;;;;;2254653;56;20957;-67
2021/07/23 06:31:04;;;;;;;7.47;5.45;;;21.00;66.80;;;;;;2264149;55;20977;-67
2021/07/23 06:33:31;;;;;;;8.10;5.35;;;21.00;66.80;;;;;;2481824;54;20948;-67
2021/07/23 06:35:57;;;;;;;6.45;4.53;;;21.10;66.90;;;;;;2269002;55;21439;-70
2021/07/23 06:38:24;;;;;;;8.88;5.25;;;21.20;66.90;;;;;;2266898;55;21802;-68
2021/07/23 06:40:56;;;;;;;9.10;5.65;;;21.30;67.00;;;;;;2276702;55;21091;-68
2021/07/23 06:43:22;;;;;;;9.32;4.90;;;21.40;66.90;;;;;;2263766;55;20981;-68
2021/07/23 06:45:52;;;;;;;9.10;5.40;;;21.50;66.90;;;;;;2273264;55;20984;-68
2021/07/23 06:48:20;;;;;;;9.45;5.90;;;21.50;66.90;;;;;;2492223;54;20989;-67
2021/07/23 06:50:46;;;;;;;9.05;5.72;;;21.60;66.80;;;;;;2484546;55;20976;-67
2021/07/23 06:53:17;;;;;;;9.32;5.95;;;21.70;66.80;;;;;;2272488;55;20965;-68
2021/07/23 06:55:44;;;;;;;9.70;6.32;;;21.80;66.60;;;;;;2266440;55;20997;-67
2021/07/23 06:58:10;;;;;;;10.68;6.18;;;21.80;66.40;;;;;;2272588;55;21092;-68
2021/07/23 07:00:36;;;;;;;8.60;5.60;;;21.90;66.50;;;;;;2259872;55;21026;-71
2021/07/23 07:03:06;;;;;;;10.38;6.57;;;22.00;66.60;;;;;;2487067;55;21879;-70
2021/07/23 07:05:32;;;;;;;11.32;5.85;;;22.10;66.50;;;;;;2272859;55;20948;-69
2021/07/23 07:07:59;;;;;;;7.20;4.55;;;22.10;66.50;;;;;;2485781;55;21021;-69
2021/07/23 07:10:26;;;;;;;8.40;4.95;;;22.30;66.80;;;;;;2269826;55;21532;-66
2021/07/23 07:12:57;;;;;;;8.55;5.53;;;22.30;66.60;;;;;;2265907;55;21016;-67
2021/07/23 07:15:24;;;;;;;9.45;5.87;;;22.40;66.40;;;;;;2267574;55;20970;-66
2021/07/23 07:17:59;;;;;;;10.93;5.70;;;22.50;66.60;;;;;;2266637;55;21044;-67
2021/07/23 07:20:26;;;;;;;8.75;4.90;;;22.60;66.50;;;;;;2273707;55;20924;-70
2021/07/23 07:22:53;;;;;;;7.47;5.30;;;22.80;67.10;;;;;;2269907;55;20976;-70
2021/07/23 07:25:20;;;;;;;8.88;5.05;;;22.90;67.30;;;;;;2273646;55;20944;-68
2021/07/23 07:27:46;;;;;;;10.27;5.50;;;23.10;67.40;;;;;;2263655;55;20931;-68
2021/07/23 07:30:13;;;;;;;8.68;4.87;;;23.20;67.10;;;;;;2265481;55;20976;-71
2021/07/23 07:32:39;;;;;;;6.72;4.62;;;23.30;66.80;;;;;;2273406;55;21000;-68
2021/07/23 07:35:07;;;;;;;9.63;5.10;;;23.50;66.70;;;;;;2266049;55;20989;-68
2021/07/23 07:37:33;;;;;;;10.13;5.75;;;23.60;67.30;;;;;;2266392;55;21021;-69
2021/07/23 07:40:05;;;;;;;8.57;5.62;;;23.70;66.20;;;;;;2491741;55;21033;-70
2021/07/23 07:42:40;;;;;;;9.52;5.32;;;23.80;65.80;;;;;;2269947;55;21587;-67
2021/07/23 07:45:07;;;;;;;9.68;5.53;;;23.90;65.90;;;;;;2336437;55;21020;-68
2021/07/23 07:47:33;;;;;;;8.32;5.72;;;23.90;65.60;;;;;;2273503;55;20947;-68
2021/07/23 07:50:00;;;;;;;8.15;5.50;;;24.00;65.60;;;;;;2268372;55;20996;-68
2021/07/23 07:52:26;;;;;;;8.15;5.57;;;24.10;65.50;;;;;;2267268;55;21391;-67
2021/07/23 07:54:52;;;;;;;8.82;5.90;;;24.10;65.40;;;;;;2255837;55;20980;-68
2021/07/23 07:57:19;;;;;;;9.75;6.00;;;24.20;65.40;;;;;;2269573;55;20985;-70
2021/07/23 07:59:45;;;;;;;9.75;5.53;;;24.30;65.30;;;;;;2266863;55;21524;-68
2021/07/23 08:02:13;;;;;;;9.32;6.05;;;24.40;65.40;;;;;;2268338;55;20985;-69
2021/07/23 08:04:39;;;;;;;7.68;4.75;;;24.40;65.30;;;;;;2270319;55;21015;-69
2021/07/23 08:07:10;;;;;;;7.60;5.55;;;24.50;65.30;;;;;;2260436;55;20980;-70
2021/07/23 08:10:45;;;;;;;10.85;5.40;;;24.60;65.30;;;;;;2266343;55;20944;-70
2021/07/23 08:13:12;;;;;;;9.63;5.47;;;24.70;64.60;;;;;;2271013;55;21021;-70
2021/07/23 08:15:39;;;;;;;6.85;4.80;;;24.80;64.90;;;;;;2265906;55;20912;-68
2021/07/23 08:18:05;;;;;;;6.80;4.87;;;24.80;64.50;;;;;;2272265;55;21334;-70
2021/07/23 08:20:32;;;;;;;8.48;5.85;;;24.90;64.20;;;;;;2491394;54;20977;-72
2021/07/23 08:22:59;;;;;;;8.60;5.45;;;25.00;63.80;;;;;;2263663;55;21007;-69
2021/07/23 08:25:25;;;;;;;8.68;5.25;;;25.00;63.50;;;;;;2269677;55;20944;-70
2021/07/23 08:27:52;;;;;;;7.15;4.93;;;25.10;63.50;;;;;;2273899;55;21072;-70
2021/07/23 08:30:18;;;;;;;7.35;5.15;;;25.20;63.60;;;;;;2261222;55;20952;-69
2021/07/23 08:32:48;;;;;;;8.43;5.50;;;25.20;63.30;;;;;;2492160;54;20948;-69
2021/07/23 08:35:17;;;;;;;6.97;4.90;;;25.20;63.30;;;;;;2267949;55;21048;-70
2021/07/23 08:37:45;;;;;;;7.97;5.80;;;25.30;63.30;;;;;;2394261;55;20997;-69
2021/07/23 08:40:12;;;;;;;7.78;5.10;;;25.40;63.10;;;;;;2491108;54;20949;-72
2021/07/23 08:42:38;;;;;;;6.62;4.90;;;25.40;63.00;;;;;;2267121;55;21097;-71
2021/07/23 08:45:06;;;;;;;8.52;5.30;;;25.40;62.80;;;;;;2452046;55;21021;-72
2021/07/23 08:47:36;;;;;;;9.43;5.20;;;25.50;62.80;;;;;;2406706;55;20975;-69
2021/07/23 08:50:03;;;;;;;8.18;5.20;;;25.60;62.70;;;;;;2491386;54;21381;-71
2021/07/23 08:52:45;;;;;;;8.75;6.00;;;25.60;62.70;;;;;;2266705;55;20984;-70
2021/07/23 08:55:13;;;;;;;7.97;5.55;;;25.70;61.70;;;;;;2269030;55;21071;-68
2021/07/23 08:57:40;;;;;;;7.55;5.40;;;25.70;62.30;;;;;;2273076;55;21034;-68
2021/07/23 09:00:17;;;;;;;9.50;6.15;;;25.80;62.30;;;;;;2267210;55;20972;-67
2021/07/23 09:03:14;;;;;;;7.03;4.75;;;25.90;62.10;;;;;;2269309;55;21700;-66
2021/07/23 09:05:41;;;;;;;8.00;5.32;;;25.90;62.00;;;;;;2490352;54;20972;-68
2021/07/23 09:08:11;;;;;;;7.68;5.30;;;26.00;62.40;;;;;;2256428;55;21054;-66
2021/07/23 09:10:38;;;;;;;7.62;4.93;;;26.10;62.00;;;;;;2270731;55;20948;-66
2021/07/23 09:13:22;;;;;;;10.50;5.72;;;26.20;62.00;;;;;;2269149;55;20963;-67
2021/07/23 09:15:49;;;;;;;7.78;5.10;;;26.30;61.00;;;;;;2487429;55;20944;-66
2021/07/23 09:18:28;;;;;;;7.35;5.47;;;26.30;61.50;;;;;;2265349;55;20991;-67
2021/07/23 09:21:00;;;;;;;8.37;5.97;;;26.40;61.10;;;;;;2271277;55;21376;-69
2021/07/23 09:23:31;;;;;;;7.60;5.15;;;26.50;61.00;;;;;;2267426;55;21091;-71
2021/07/23 09:26:02;;;;;;;7.35;5.18;;;26.50;60.80;;;;;;2246762;55;21601;-68
2021/07/23 09:28:30;;;;;;;8.25;5.62;;;26.60;61.10;;;;;;2267688;55;20936;-67
2021/07/23 09:31:03;;;;;;;7.70;5.10;;;26.70;61.10;;;;;;2264707;55;20984;-67
2021/07/23 09:33:31;;;;;;;7.43;5.28;;;26.70;61.00;;;;;;2267338;55;21464;-68
2021/07/23 09:35:59;;;;;;;8.57;5.18;;;26.70;61.10;;;;;;2396203;54;21099;-67
2021/07/23 09:38:32;;;;;;;7.57;5.37;;;26.80;61.00;;;;;;2276732;55;21083;-68
2021/07/23 09:40:59;;;;;;;9.10;5.32;;;26.90;60.60;;;;;;2264268;55;21473;-70
2021/07/23 09:43:32;;;;;;;7.32;5.55;;;27.00;60.60;;;;;;2258578;55;21048;-67
2021/07/23 09:46:23;;;;;;;8.30;5.62;;;27.00;59.80;;;;;;2271141;55;21013;-68
2021/07/23 09:48:53;;;;;;;7.35;4.93;;;27.10;59.20;;;;;;2489229;55;21032;-68
2021/07/23 09:51:24;;;;;;;7.53;5.37;;;27.20;60.10;;;;;;2267456;55;20961;-70
2021/07/23 09:53:51;;;;;;;7.50;5.37;;;27.20;59.80;;;;;;2270306;55;21000;-70
2021/07/23 09:56:21;;;;;;;8.15;5.45;;;27.30;60.00;;;;;;2278320;55;21028;-69
2021/07/23 09:58:52;;;;;;;7.10;5.28;;;27.30;60.10;;;;;;2268065;55;21839;-69
2021/07/23 10:01:21;;;;;;;6.97;4.82;;;27.40;59.70;;;;;;2268291;55;20988;-68
2021/07/23 10:03:49;;;;;;;8.02;4.97;;;27.50;60.10;;;;;;2265843;55;20969;-68
2021/07/23 10:06:22;;;;;;;7.47;5.37;;;27.50;59.80;;;;;;2269644;55;21078;-67
2021/07/23 10:08:49;;;;;;;8.27;5.30;;;27.60;59.40;;;;;;2266797;55;21871;-68
2021/07/23 10:11:18;;;;;;;7.65;5.05;;;27.70;59.60;;;;;;2268886;55;20972;-68
2021/07/23 10:13:45;;;;;;;7.78;4.93;;;27.80;59.30;;;;;;2455946;55;21046;-71
2021/07/23 10:16:11;;;;;;;7.10;5.30;;;27.80;59.30;;;;;;2267116;55;21047;-67
2021/07/23 10:18:38;;;;;;;8.02;5.40;;;27.90;59.10;;;;;;2486993;54;20945;-66
2021/07/23 10:21:05;;;;;;;8.13;5.53;;;28.00;59.10;;;;;;2270071;55;21084;-70
2021/07/23 10:23:32;;;;;;;7.50;5.12;;;28.00;59.00;;;;;;2484627;55;21064;-66
2021/07/23 10:25:59;;;;;;;8.00;5.62;;;28.10;59.20;;;;;;2270483;55;21047;-71
2021/07/23 10:30:50;;;;;;;8.38;5.30;;;28.10;59.00;;;;;;2263227;55;21013;-68
2021/07/23 10:36:58;;;;;;;7.37;4.75;;;28.30;58.80;;;;;;2490580;55;20996;-67
2021/07/23 10:39:25;;;;;;;6.80;4.60;;;28.40;58.20;;;;;;2269891;55;22015;-69
2021/07/23 10:42:37;;;;;;;8.02;5.10;;;28.50;58.70;;;;;;2264899;55;21072;-67
2021/07/23 10:45:05;;;;;;;7.10;4.87;;;28.60;57.80;;;;;;2491630;55;21738;-68
2021/07/23 10:47:47;;;;;;;8.52;5.50;;;28.60;58.50;;;;;;2269308;55;20964;-68
2021/07/23 10:52:05;;;;;;;8.07;5.90;;;28.60;57.40;;;;;;2269308;55;20967;-67
2021/07/23 10:54:33;;;;;;;7.60;5.28;;;28.70;57.60;;;;;;2277243;55;21024;-69
2021/07/23 10:57:21;;;;;;;6.10;4.47;;;28.70;57.80;;;;;;2264276;55;20956;-67
2021/07/23 10:59:48;;;;;;;11.43;5.18;;;28.80;57.00;;;;;;2278790;55;21519;-69
2021/07/23 11:02:47;;;;;;;6.80;4.65;;;28.80;57.70;;;;;;2269210;55;20964;-67
2021/07/23 11:05:16;;;;;;;7.30;5.05;;;28.80;56.90;;;;;;2270037;55;21044;-67
2021/07/23 11:07:43;;;;;;;6.65;4.70;;;28.80;57.50;;;;;;2271035;55;21869;-66
2021/07/23 11:10:13;;;;;;;7.47;5.40;;;28.90;57.50;;;;;;2334704;54;21438;-68
2021/07/23 11:12:41;;;;;;;6.07;4.50;;;29.00;57.30;;;;;;2265276;55;20944;-69
2021/07/23 11:15:08;;;;;;;7.32;5.35;;;29.00;57.30;;;;;;2268780;55;20993;-66
2021/07/23 11:17:46;;;;;;;7.35;5.07;;;29.10;57.70;;;;;;2267489;55;21484;-70
2021/07/23 11:20:13;;;;;;;8.27;5.53;;;29.20;56.50;;;;;;2272631;55;21044;-67
2021/07/23 11:22:39;;;;;;;7.18;4.90;;;29.30;57.20;;;;;;2415119;55;20960;-67
2021/07/23 11:25:08;;;;;;;7.37;4.82;;;29.30;57.10;;;;;;2270819;55;21037;-68
2021/07/23 11:27:36;;;;;;;6.85;4.95;;;29.40;57.00;;;;;;2273999;55;21024;-67
2021/07/23 11:30:25;;;;;;;8.30;5.43;;;29.50;57.00;;;;;;2483393;55;20987;-70
2021/07/23 11:33:53;;;;;;;6.75;4.82;;;29.60;55.70;;;;;;2267090;55;21155;-68
2021/07/23 11:36:38;;;;;;;6.78;4.70;;;29.60;56.30;;;;;;2407063;55;21033;-69
2021/07/23 11:39:07;;;;;;;7.20;4.97;;;29.80;55.70;;;;;;2261198;55;20980;-67
2021/07/23 11:41:34;;;;;;;8.32;5.25;;;29.80;56.40;;;;;;2487897;55;21778;-69
2021/07/23 11:44:10;;;;;;;8.15;5.45;;;29.90;56.50;;;;;;2266239;55;21118;-67
2021/07/23 11:46:39;;;;;;;8.18;5.30;;;30.00;55.10;;;;;;2266910;55;20952;-68
2021/07/23 11:49:06;;;;;;;6.82;4.75;;;30.00;55.90;;;;;;2270016;55;20949;-67
2021/07/23 11:51:49;;;;;;;9.57;5.53;;;30.00;55.70;;;;;;2404617;55;20960;-67
2021/07/23 11:54:18;;;;;;;8.95;6.03;;;30.10;54.50;;;;;;2266651;55;20932;-66
2021/07/23 11:56:45;;;;;;;6.97;5.30;;;30.20;54.80;;;;;;2272093;55;21474;-68
2021/07/23 11:59:11;;;;;;;7.45;5.40;;;30.20;55.00;;;;;;2266378;55;21268;-69
2021/07/23 12:01:39;;;;;;;6.87;5.07;;;30.20;54.80;;;;;;2267602;55;21575;-68
2021/07/23 12:04:06;;;;;;;6.93;4.93;;;30.20;54.40;;;;;;2267786;55;21916;-69
2021/07/23 12:06:32;;;;;;;7.72;5.32;;;30.30;54.50;;;;;;2353961;55;21016;-68
2021/07/23 12:09:02;;;;;;;6.97;4.90;;;30.30;54.30;;;;;;2260987;55;21005;-71
2021/07/23 12:11:31;;;;;;;7.18;5.20;;;30.30;54.00;;;;;;2487673;55;20988;-66
2021/07/23 12:14:04;;;;;;;5.68;4.62;;;30.40;53.90;;;;;;2245127;55;21489;-70
2021/07/23 12:16:31;;;;;;;6.90;4.65;;;30.40;54.30;;;;;;2263971;55;20928;-67
2021/07/23 12:18:58;;;;;;;8.40;5.12;;;30.40;54.30;;;;;;2268017;55;21088;-67
2021/07/23 12:21:26;;;;;;;6.72;4.70;;;30.50;54.30;;;;;;2489488;55;20953;-70
2021/07/23 12:23:59;;;;;;;7.80;5.35;;;30.50;53.90;;;;;;2359417;55;21028;-67
2021/07/23 12:26:27;;;;;;;7.10;5.07;;;30.70;53.30;;;;;;2267792;55;20992;-68
2021/07/23 12:28:56;;;;;;;7.82;4.97;;;30.70;53.70;;;;;;2265584;55;20972;-68
2021/07/23 12:31:22;;;;;;;7.68;5.32;;;30.70;53.60;;;;;;2256661;55;20972;-68
2021/07/23 12:34:10;;;;;;;6.50;4.85;;;30.80;53.30;;;;;;2397120;55;21023;-67
2021/07/23 12:36:50;;;;;;;7.40;4.93;;;30.80;52.40;;;;;;2267514;55;20957;-67
2021/07/23 12:39:23;;;;;;;6.45;4.82;;;30.80;53.10;;;;;;2266726;55;21433;-68
2021/07/23 12:41:49;;;;;;;6.72;5.18;;;30.90;53.10;;;;;;2250474;55;21451;-68
2021/07/23 12:44:16;;;;;;;6.75;4.57;;;30.90;52.90;;;;;;2265669;55;21020;-67
2021/07/23 12:46:44;;;;;;;7.00;4.82;;;31.00;53.00;;;;;;2398720;55;20937;-68
2021/07/23 12:49:21;;;;;;;7.22;4.62;;;31.00;53.30;;;;;;2272532;55;21054;-68
2021/07/23 12:52:08;;;;;;;6.97;5.00;;;31.10;52.40;;;;;;2251224;55;20947;-68
2021/07/23 12:54:36;;;;;;;5.93;4.10;;;31.20;52.10;;;;;;2271314;55;21020;-68
2021/07/23 12:57:21;;;;;;;6.15;4.28;;;31.20;52.80;;;;;;2267560;55;20976;-69
2021/07/23 12:59:51;;;;;;;6.95;4.75;;;31.20;52.00;;;;;;2268380;55;20971;-66
2021/07/23 13:02:20;;;;;;;6.97;4.50;;;31.30;52.40;;;;;;2330954;55;21065;-67